createdAt,value
2022-08-25T00:00:16.877Z,6.45
2022-08-25T00:02:55.511Z,6.35
2022-08-25T00:05:32.222Z,8.00
2022-08-25T00:08:02.516Z,6.90
2022-08-25T00:10:32.820Z,7.32
2022-08-25T00:13:01.627Z,7.50
2022-08-25T00:15:32.183Z,7.05
2022-08-25T00:18:01.689Z,7.00
2022-08-25T00:20:31.280Z,6.85
2022-08-25T00:22:59.654Z,5.88
2022-08-25T00:25:28.424Z,6.65
2022-08-25T00:27:59.258Z,7.38
2022-08-25T00:30:27.887Z,6.55
2022-08-25T00:32:57.252Z,7.13
2022-08-25T00:35:27.461Z,7.32
2022-08-25T00:37:56.316Z,6.97
2022-08-25T00:40:27.987Z,7.03
2022-08-25T00:42:57.942Z,6.82
2022-08-25T00:45:26.492Z,7.57
2022-08-25T00:47:56.689Z,7.35
2022-08-25T00:50:29.800Z,7.07
2022-08-25T00:53:03.232Z,7.18
2022-08-25T00:55:37.027Z,6.93
2022-08-25T00:58:11.695Z,7.47
2022-08-25T01:00:43.531Z,7.00
2022-08-25T01:03:12.836Z,7.18
2022-08-25T01:05:42.081Z,7.53
2022-08-25T01:08:11.320Z,7.60
2022-08-25T01:10:47.366Z,6.55
2022-08-25T01:13:22.101Z,7.07
2022-08-25T01:15:54.303Z,6.80
2022-08-25T01:18:23.300Z,6.68
2022-08-25T01:20:53.847Z,7.35
2022-08-25T01:23:26.239Z,7.32
2022-08-25T01:26:02.940Z,8.20
2022-08-25T01:28:32.444Z,7.28
2022-08-25T01:31:00.981Z,7.53
2022-08-25T01:33:29.448Z,6.85
2022-08-25T01:35:59.381Z,6.63
2022-08-25T01:38:28.076Z,7.13
2022-08-25T01:40:56.289Z,7.38
2022-08-25T01:43:37.201Z,6.70
2022-08-25T01:46:05.864Z,6.82
2022-08-25T01:48:34.276Z,6.10
2022-08-25T01:51:03.958Z,6.72
2022-08-25T01:53:33.819Z,6.75
2022-08-25T01:56:10.216Z,6.57
2022-08-25T01:58:40.771Z,6.70
2022-08-25T02:01:11.372Z,7.70
2022-08-25T02:03:42.492Z,7.30
2022-08-25T02:06:12.830Z,7.90
2022-08-25T02:08:41.539Z,6.60
2022-08-25T02:11:13.316Z,7.80
2022-08-25T02:13:43.050Z,7.80
2022-08-25T02:16:17.423Z,8.13
2022-08-25T02:18:46.381Z,8.00
2022-08-25T02:21:16.508Z,7.72
2022-08-25T02:23:45.307Z,7.40
2022-08-25T02:26:16.666Z,6.88
2022-08-25T02:28:47.191Z,7.75
2022-08-25T02:31:16.610Z,6.90
2022-08-25T02:33:44.947Z,7.70
2022-08-25T02:36:15.080Z,7.43
2022-08-25T02:38:43.736Z,6.80
2022-08-25T02:41:14.562Z,7.13
2022-08-25T02:43:44.263Z,6.45
2022-08-25T02:46:13.580Z,7.95
2022-08-25T02:48:42.591Z,8.63
2022-08-25T02:51:12.334Z,8.07
2022-08-25T02:53:46.017Z,7.47
2022-08-25T02:56:15.628Z,7.38
2022-08-25T02:58:44.385Z,8.10
2022-08-25T03:01:13.143Z,9.05
2022-08-25T03:03:43.640Z,9.43
2022-08-25T03:06:14.178Z,8.85
2022-08-25T03:08:45.056Z,8.30
2022-08-25T03:11:14.145Z,7.93
2022-08-25T03:13:42.911Z,7.22
2022-08-25T03:16:12.445Z,7.82
2022-08-25T03:18:43.226Z,7.28
2022-08-25T03:21:12.419Z,7.20
2022-08-25T03:23:41.779Z,7.65
2022-08-25T03:26:29.252Z,8.65
2022-08-25T03:28:57.550Z,7.90
2022-08-25T03:31:27.850Z,9.05
2022-08-25T03:33:56.419Z,9.90
2022-08-25T03:36:25.200Z,8.15
2022-08-25T03:38:53.636Z,8.30
2022-08-25T03:41:25.638Z,8.63
2022-08-25T03:43:58.315Z,6.93
2022-08-25T03:46:29.085Z,7.88
2022-08-25T03:48:58.566Z,7.30
2022-08-25T03:51:32.466Z,7.07
2022-08-25T03:54:01.196Z,7.70
2022-08-25T03:56:31.373Z,7.00
2022-08-25T03:58:59.916Z,7.47
2022-08-25T04:01:29.073Z,8.00
2022-08-25T04:03:57.626Z,7.97
2022-08-25T04:06:25.951Z,7.35
2022-08-25T04:08:54.195Z,8.27
2022-08-25T04:11:24.434Z,9.38
2022-08-25T04:13:57.571Z,9.57
2022-08-25T04:16:28.427Z,9.30
2022-08-25T04:18:57.281Z,9.23
2022-08-25T04:21:26.787Z,8.65
2022-08-25T04:23:56.490Z,8.27
2022-08-25T04:26:27.297Z,7.35
2022-08-25T04:29:00.123Z,8.02
2022-08-25T04:31:30.114Z,8.43
2022-08-25T04:33:59.371Z,7.60
2022-08-25T04:36:27.770Z,7.75
2022-08-25T04:38:55.990Z,8.45
2022-08-25T04:41:25.808Z,7.95
2022-08-25T04:43:58.101Z,6.78
2022-08-25T04:46:28.790Z,7.95
2022-08-25T04:48:58.741Z,8.55
2022-08-25T04:51:30.481Z,7.53
2022-08-25T04:54:01.992Z,7.47
2022-08-25T04:56:31.144Z,9.15
2022-08-25T04:59:04.669Z,7.85
2022-08-25T05:01:33.064Z,7.70
2022-08-25T05:04:03.594Z,7.25
2022-08-25T05:06:32.669Z,7.55
2022-08-25T05:09:02.146Z,7.47
2022-08-25T05:11:32.075Z,7.75
2022-08-25T05:14:03.881Z,8.73
2022-08-25T05:16:32.617Z,8.88
2022-08-25T05:19:00.826Z,8.30
2022-08-25T05:21:29.763Z,8.45
2022-08-25T05:23:58.992Z,8.57
2022-08-25T05:26:31.400Z,9.15
2022-08-25T05:29:01.587Z,10.02
2022-08-25T05:31:31.664Z,10.48
2022-08-25T05:34:00.407Z,8.48
2022-08-25T05:36:29.667Z,10.10
2022-08-25T05:38:57.917Z,9.07
2022-08-25T05:41:29.430Z,9.77
2022-08-25T05:43:57.896Z,9.80
2022-08-25T05:46:26.528Z,10.20
2022-08-25T05:48:56.246Z,10.73
2022-08-25T05:51:24.589Z,10.20
2022-08-25T05:53:53.492Z,10.00
2022-08-25T05:56:22.096Z,10.90
2022-08-25T05:58:50.785Z,10.50
2022-08-25T06:01:43.587Z,9.55
2022-08-25T06:04:15.334Z,9.45
2022-08-25T06:06:43.761Z,9.45
2022-08-25T06:09:12.438Z,8.63
2022-08-25T06:11:41.887Z,8.95
2022-08-25T06:14:10.828Z,9.02
2022-08-25T06:16:39.382Z,9.65
2022-08-25T06:19:08.795Z,9.25
2022-08-25T06:21:39.437Z,9.38
2022-08-25T06:24:12.072Z,9.77
2022-08-25T06:26:44.059Z,10.63
2022-08-25T06:29:14.107Z,11.43
2022-08-25T06:31:43.352Z,9.75
2022-08-25T06:34:11.948Z,9.98
2022-08-25T06:36:41.578Z,9.95
2022-08-25T06:39:10.500Z,12.43
2022-08-25T06:41:39.154Z,12.20
2022-08-25T06:44:07.683Z,12.20
2022-08-25T06:46:37.112Z,11.40
2022-08-25T06:49:06.795Z,11.48
2022-08-25T06:51:36.936Z,11.75
2022-08-25T06:54:07.934Z,9.88
2022-08-25T06:56:36.152Z,12.07
2022-08-25T06:59:05.802Z,11.38
2022-08-25T07:01:35.027Z,12.18
2022-08-25T07:04:11.716Z,10.60
2022-08-25T07:06:41.869Z,10.48
2022-08-25T07:09:12.869Z,10.80
2022-08-25T07:11:42.496Z,10.38
2022-08-25T07:14:13.142Z,10.00
2022-08-25T07:16:48.586Z,11.10
2022-08-25T07:19:20.891Z,9.68
2022-08-25T07:21:52.651Z,10.13
2022-08-25T07:24:23.977Z,9.80
2022-08-25T07:26:52.798Z,8.98
2022-08-25T07:29:26.591Z,9.50
2022-08-25T07:32:01.294Z,9.10
2022-08-25T07:34:52.495Z,8.77
2022-08-25T07:37:45.436Z,8.73
2022-08-25T07:40:15.109Z,8.88
2022-08-25T07:42:43.859Z,9.38
2022-08-25T07:45:13.992Z,9.95
2022-08-25T07:47:45.569Z,9.40
2022-08-25T07:50:14.946Z,10.25
2022-08-25T07:52:43.373Z,11.02
2022-08-25T07:55:13.607Z,11.38
2022-08-25T07:57:56.072Z,10.48
2022-08-25T08:00:28.019Z,10.00
2022-08-25T08:02:57.128Z,10.73
2022-08-25T08:05:25.983Z,9.82
2022-08-25T08:07:54.910Z,9.70
2022-08-25T08:13:18.045Z,9.90
2022-08-25T08:15:48.225Z,9.68
2022-08-25T08:18:17.109Z,10.32
2022-08-25T08:20:47.308Z,10.38
2022-08-25T08:23:16.729Z,10.98
2022-08-25T08:25:46.426Z,10.15
2022-08-25T08:28:14.742Z,9.95
2022-08-25T08:30:53.573Z,9.95
2022-08-25T08:33:24.460Z,10.80
2022-08-25T08:35:59.165Z,9.77
2022-08-25T08:38:27.895Z,9.37
2022-08-25T08:41:24.119Z,9.75
2022-08-25T08:46:26.154Z,9.07
2022-08-25T08:49:02.939Z,8.93
2022-08-25T08:51:36.774Z,10.18
2022-08-25T08:54:15.161Z,8.55
2022-08-25T08:56:49.463Z,8.68
2022-08-25T08:59:22.088Z,9.50
2022-08-25T09:02:01.811Z,8.77
2022-08-25T09:04:36.099Z,9.75
2022-08-25T09:07:12.104Z,8.85
2022-08-25T09:09:43.325Z,9.70
2022-08-25T09:12:17.188Z,10.23
2022-08-25T09:15:12.530Z,9.02
2022-08-25T09:18:07.168Z,8.98
2022-08-25T09:20:57.770Z,9.05
2022-08-25T09:23:41.443Z,8.80
2022-08-25T09:26:27.351Z,10.57
2022-08-25T09:31:38.851Z,9.23
2022-08-25T09:34:12.919Z,9.07
2022-08-25T09:36:42.803Z,8.73
2022-08-25T09:39:11.143Z,8.07
2022-08-25T09:41:51.263Z,9.23
2022-08-25T09:44:24.490Z,8.68
2022-08-25T09:47:08.088Z,9.07
2022-08-25T09:49:41.706Z,8.73
2022-08-25T09:52:34.822Z,8.90
2022-08-25T09:55:24.217Z,8.48
2022-08-25T09:57:55.145Z,8.05
2022-08-25T10:00:33.579Z,8.80
2022-08-25T10:03:06.862Z,8.88
2022-08-25T10:05:58.563Z,7.82
2022-08-25T10:08:32.997Z,8.20
2022-08-25T10:11:04.581Z,8.50
2022-08-25T10:13:39.910Z,8.45
2022-08-25T10:16:24.703Z,7.28
2022-08-25T10:19:06.729Z,9.32
2022-08-25T10:21:37.231Z,7.93
2022-08-25T10:24:07.235Z,8.38
2022-08-25T10:26:49.478Z,7.65
2022-08-25T10:29:41.204Z,7.55
2022-08-25T10:32:20.083Z,8.13
2022-08-25T10:34:51.706Z,8.15
2022-08-25T10:37:32.877Z,7.55
2022-08-25T10:40:16.637Z,8.23
2022-08-25T10:42:54.941Z,8.05
2022-08-25T10:45:44.512Z,7.07
2022-08-25T10:48:59.632Z,8.18
2022-08-25T10:51:53.298Z,7.45
2022-08-25T10:54:35.092Z,8.38
2022-08-25T10:57:11.517Z,8.20
2022-08-25T10:59:52.905Z,7.68
2022-08-25T11:03:11.221Z,8.13
2022-08-25T11:05:46.937Z,7.88
2022-08-25T11:08:20.449Z,7.95
2022-08-25T11:10:54.158Z,8.20
2022-08-25T11:13:28.021Z,7.55
2022-08-25T11:16:18.814Z,7.15
2022-08-25T11:19:00.787Z,8.68
2022-08-25T11:21:41.868Z,7.80
2022-08-25T11:24:33.216Z,7.72
2022-08-25T11:27:07.545Z,7.03
2022-08-25T11:29:39.551Z,7.50
2022-08-25T11:32:08.740Z,7.65
2022-08-25T11:34:43.693Z,7.90
2022-08-25T11:37:20.965Z,6.93
2022-08-25T11:40:15.606Z,7.25
2022-08-25T11:43:01.708Z,7.88
2022-08-25T11:45:49.094Z,8.00
2022-08-25T11:48:36.703Z,7.05
2022-08-25T11:51:07.797Z,7.25
2022-08-25T11:53:42.195Z,7.25
2022-08-25T11:56:12.959Z,7.60
2022-08-25T11:58:47.850Z,7.03
2022-08-25T12:02:09.066Z,7.18
2022-08-25T12:04:45.083Z,7.30
2022-08-25T12:07:25.997Z,7.45
2022-08-25T12:10:14.989Z,6.50
2022-08-25T12:13:04.688Z,7.75
2022-08-25T12:15:58.428Z,6.97
2022-08-25T12:18:45.794Z,6.53
2022-08-25T12:21:31.071Z,6.50
2022-08-25T12:24:11.978Z,8.20
2022-08-25T12:26:50.150Z,6.75
2022-08-25T12:29:27.789Z,6.20
2022-08-25T12:32:18.496Z,5.85
2022-08-25T12:35:27.205Z,6.90
2022-08-25T12:38:01.505Z,6.35
2022-08-25T12:40:35.984Z,7.03
2022-08-25T12:43:27.644Z,7.30
2022-08-25T12:46:36.252Z,7.10
2022-08-25T12:49:07.456Z,7.03
2022-08-25T12:51:57.492Z,6.00
2022-08-25T12:54:42.600Z,6.65
2022-08-25T12:57:32.790Z,5.85
2022-08-25T13:00:08.302Z,6.43
2022-08-25T13:03:04.859Z,6.90
2022-08-25T13:06:00.069Z,6.75
2022-08-25T13:08:48.112Z,6.38
2022-08-25T13:11:21.252Z,5.00
2022-08-25T13:13:54.472Z,6.35
2022-08-25T13:16:29.532Z,6.32
2022-08-25T13:19:01.669Z,6.60
2022-08-25T13:21:35.197Z,6.35
2022-08-25T13:24:11.744Z,6.68
2022-08-25T13:26:48.122Z,6.07
2022-08-25T13:29:21.333Z,6.55
2022-08-25T13:31:57.605Z,7.03
2022-08-25T13:34:34.450Z,7.45
2022-08-25T13:37:25.364Z,7.13
2022-08-25T13:40:10.265Z,7.10
2022-08-25T13:42:42.406Z,7.00
2022-08-25T13:45:16.493Z,7.53
2022-08-25T13:47:47.104Z,7.82
2022-08-25T13:50:21.048Z,7.38
2022-08-25T13:52:55.336Z,7.63
2022-08-25T13:55:27.798Z,8.68
2022-08-25T13:57:59.678Z,9.00
2022-08-25T14:00:35.963Z,7.68
2022-08-25T14:03:12.658Z,7.13
2022-08-25T14:05:44.386Z,6.97
2022-08-25T14:08:33.109Z,8.52
2022-08-25T14:11:14.972Z,7.60
2022-08-25T14:13:45.385Z,7.55
2022-08-25T14:16:20.193Z,9.00
2022-08-25T14:18:52.472Z,7.45
2022-08-25T14:21:25.158Z,7.60
2022-08-25T14:23:54.614Z,7.32
2022-08-25T14:26:23.099Z,7.88
2022-08-25T14:28:51.891Z,8.68
2022-08-25T14:31:27.723Z,8.18
2022-08-25T14:34:02.099Z,7.38
2022-08-25T14:36:32.538Z,8.00
2022-08-25T14:39:05.751Z,8.00
2022-08-25T14:41:38.538Z,7.78
2022-08-25T14:44:07.477Z,8.10
2022-08-25T14:46:40.110Z,8.05
2022-08-25T14:49:14.692Z,7.45
2022-08-25T14:51:43.425Z,7.70
2022-08-25T14:54:14.894Z,7.93
2022-08-25T14:56:43.970Z,7.32
2022-08-25T14:59:12.221Z,6.97
2022-08-25T15:01:40.554Z,8.23
2022-08-25T15:04:15.673Z,7.18
2022-08-25T15:06:45.368Z,7.40
2022-08-25T15:09:16.439Z,6.88
2022-08-25T15:11:46.764Z,6.30
2022-08-25T15:14:17.504Z,6.57
2022-08-25T15:16:49.329Z,7.40
2022-08-25T15:19:21.652Z,6.72
2022-08-25T15:21:52.350Z,7.03
2022-08-25T15:24:22.629Z,6.70
2022-08-25T15:29:30.270Z,7.35
2022-08-25T15:32:00.126Z,6.53
2022-08-25T15:34:30.282Z,5.57
2022-08-25T15:36:59.190Z,6.43
2022-08-25T15:39:27.692Z,6.63
2022-08-25T15:41:57.254Z,6.65
2022-08-25T15:44:29.428Z,7.15
2022-08-25T15:46:59.342Z,6.95
2022-08-25T15:49:31.154Z,5.68
2022-08-25T15:52:00.337Z,5.28
2022-08-25T15:54:30.310Z,5.47
2022-08-25T15:56:59.784Z,4.68
2022-08-25T15:59:30.576Z,5.50
2022-08-25T16:02:00.512Z,6.30
2022-08-25T16:04:31.285Z,6.22
2022-08-25T16:07:01.195Z,6.22
2022-08-25T16:09:31.339Z,5.60
2022-08-25T16:12:03.999Z,6.00
2022-08-25T16:17:03.144Z,6.07
2022-08-25T16:19:33.482Z,5.88
2022-08-25T16:22:04.453Z,6.38
2022-08-25T16:24:39.391Z,5.30
2022-08-25T16:27:11.372Z,5.40
2022-08-25T16:29:41.416Z,6.13
2022-08-25T16:32:11.330Z,5.85
2022-08-25T16:34:44.478Z,6.93
2022-08-25T16:37:13.048Z,6.03
2022-08-25T16:39:44.298Z,4.50
2022-08-25T16:42:12.607Z,6.45
2022-08-25T16:44:40.849Z,6.32
2022-08-25T16:47:09.214Z,5.88
2022-08-25T16:49:37.984Z,7.28
2022-08-25T16:52:28.423Z,6.43
2022-08-25T16:55:15.286Z,5.90
2022-08-25T16:57:47.638Z,5.60
2022-08-25T17:00:18.418Z,6.05
2022-08-25T17:02:47.741Z,6.75
2022-08-25T17:05:16.979Z,5.43
2022-08-25T17:08:08.789Z,5.90
2022-08-25T17:10:38.916Z,6.00
2022-08-25T17:13:08.026Z,6.35
2022-08-25T17:15:40.365Z,5.78
2022-08-25T17:18:09.229Z,7.50
2022-08-25T17:20:39.728Z,6.47
2022-08-25T17:23:12.351Z,5.88
2022-08-25T17:25:43.762Z,7.00
2022-08-25T17:28:13.013Z,5.90
2022-08-25T17:30:43.210Z,6.25
2022-08-25T17:33:12.266Z,6.38
2022-08-25T17:35:42.229Z,5.65
2022-08-25T17:38:12.805Z,6.65
2022-08-25T17:40:41.456Z,6.72
2022-08-25T17:43:11.047Z,5.80
2022-08-25T17:45:40.061Z,6.75
2022-08-25T17:48:09.463Z,6.28
2022-08-25T17:50:39.191Z,6.55
2022-08-25T17:53:07.661Z,6.65
2022-08-25T17:55:42.241Z,7.00
2022-08-25T17:58:13.451Z,8.18
2022-08-25T18:00:44.007Z,7.72
2022-08-25T18:03:12.671Z,6.68
2022-08-25T18:05:41.633Z,5.28
2022-08-25T18:08:10.522Z,5.10
2022-08-25T18:10:42.258Z,5.38
2022-08-25T18:13:10.738Z,4.55
2022-08-25T18:15:42.366Z,5.13
2022-08-25T18:18:12.580Z,4.53
2022-08-25T18:20:42.201Z,4.53
2022-08-25T18:23:12.664Z,5.10
2022-08-25T18:25:43.106Z,5.10
2022-08-25T18:28:11.628Z,5.00
2022-08-25T18:30:40.615Z,4.82
2022-08-25T18:33:09.175Z,5.30
2022-08-25T18:35:38.472Z,5.45
2022-08-25T18:38:24.441Z,5.15
2022-08-25T18:40:59.082Z,5.70
2022-08-25T18:43:29.070Z,5.90
2022-08-25T18:46:04.874Z,6.25
2022-08-25T18:48:33.915Z,5.95
2022-08-25T18:51:02.628Z,5.85
2022-08-25T18:53:37.312Z,6.20
2022-08-25T18:56:19.317Z,5.28
2022-08-25T18:58:48.364Z,5.90
2022-08-25T19:01:18.328Z,6.00
2022-08-25T19:03:47.411Z,5.57
2022-08-25T19:06:16.832Z,5.28
2022-08-25T19:08:45.293Z,5.57
2022-08-25T19:11:13.764Z,5.88
2022-08-25T19:13:43.523Z,5.10
2022-08-25T19:16:13.947Z,5.97
2022-08-25T19:18:47.263Z,6.13
2022-08-25T19:21:16.040Z,6.35
2022-08-25T19:23:44.270Z,6.97
2022-08-25T19:26:13.770Z,6.75
2022-08-25T19:28:49.079Z,7.97
2022-08-25T19:31:18.269Z,7.53
2022-08-25T19:33:47.328Z,6.68
2022-08-25T19:36:16.443Z,7.32
2022-08-25T19:38:45.237Z,8.63
2022-08-25T19:41:15.158Z,6.85
2022-08-25T19:43:56.757Z,8.82
2022-08-25T19:46:32.238Z,6.97
2022-08-25T19:49:07.085Z,8.95
2022-08-25T19:51:37.492Z,8.35
2022-08-25T19:54:06.726Z,7.85
2022-08-25T19:56:38.135Z,7.40
2022-08-25T19:59:14.220Z,7.07
2022-08-25T20:01:43.047Z,7.15
2022-08-25T20:04:11.533Z,7.15
2022-08-25T20:06:41.435Z,6.80
2022-08-25T20:09:35.718Z,8.02
2022-08-25T20:12:00.752Z,7.28
2022-08-25T20:14:32.769Z,8.30
2022-08-25T20:17:01.780Z,8.73
2022-08-25T20:19:31.167Z,9.18
2022-08-25T20:21:59.508Z,8.48
2022-08-25T20:24:46.140Z,8.15
2022-08-25T20:27:14.633Z,8.45
2022-08-25T20:29:44.672Z,8.38
2022-08-25T20:32:13.660Z,8.07
2022-08-25T20:37:16.332Z,8.02
2022-08-25T20:39:44.692Z,8.63
2022-08-25T20:42:13.406Z,7.85
2022-08-25T20:44:43.008Z,8.50
2022-08-25T20:47:12.024Z,8.57
2022-08-25T20:49:40.805Z,8.73
2022-08-25T20:52:10.364Z,8.27
2022-08-25T20:54:39.143Z,7.95
2022-08-25T20:57:09.180Z,9.57
2022-08-25T20:59:37.973Z,8.30
2022-08-25T21:02:08.313Z,8.55
2022-08-25T21:04:39.219Z,7.72
2022-08-25T21:07:17.210Z,8.10
2022-08-25T21:09:45.634Z,8.45
2022-08-25T21:12:14.131Z,9.35
2022-08-25T21:14:44.729Z,9.38
2022-08-25T21:17:16.146Z,8.38
2022-08-25T21:22:21.284Z,9.30
2022-08-25T21:24:51.521Z,9.32
2022-08-25T21:27:20.283Z,9.60
2022-08-25T21:29:54.927Z,9.38
2022-08-25T21:32:25.794Z,9.68
2022-08-25T21:34:56.228Z,10.35
2022-08-25T21:37:25.143Z,9.88
2022-08-25T21:39:54.379Z,8.10
2022-08-25T21:42:24.966Z,8.65
2022-08-25T21:44:53.666Z,9.45
2022-08-25T21:47:23.207Z,9.85
2022-08-25T21:49:53.183Z,11.40
2022-08-25T21:52:21.888Z,7.88
2022-08-25T21:54:50.201Z,9.50
2022-08-25T21:57:23.618Z,9.48
2022-08-25T21:59:52.843Z,8.63
2022-08-25T22:02:23.286Z,8.55
2022-08-25T22:04:56.000Z,9.82
2022-08-25T22:07:24.950Z,9.38
2022-08-25T22:09:55.041Z,9.02
2022-08-25T22:12:25.019Z,8.75
2022-08-25T22:14:53.433Z,8.77
2022-08-25T22:17:24.183Z,9.02
2022-08-25T22:19:53.526Z,9.48
2022-08-25T22:22:23.939Z,10.52
2022-08-25T22:24:53.142Z,9.05
2022-08-25T22:27:23.368Z,9.30
2022-08-25T22:29:52.452Z,9.40
2022-08-25T22:32:21.455Z,9.27
2022-08-25T22:34:50.040Z,9.05
2022-08-25T22:37:18.783Z,9.85
2022-08-25T22:39:48.546Z,10.40
2022-08-25T22:42:17.198Z,10.75
2022-08-25T22:44:45.603Z,9.25
2022-08-25T22:47:14.157Z,9.27
2022-08-25T22:49:42.702Z,9.80
2022-08-25T22:52:12.904Z,9.38
2022-08-25T22:54:42.570Z,9.73
2022-08-25T22:57:13.077Z,10.65
2022-08-25T22:59:41.723Z,10.95
2022-08-25T23:02:10.099Z,10.13
2022-08-25T23:04:41.158Z,10.05
2022-08-25T23:07:12.910Z,9.23
2022-08-25T23:09:41.938Z,9.23
2022-08-25T23:12:13.744Z,9.73
2022-08-25T23:14:44.298Z,9.90
2022-08-25T23:17:13.152Z,10.05
2022-08-25T23:19:41.763Z,9.90
2022-08-25T23:22:09.580Z,9.82
2022-08-25T23:24:42.610Z,10.25
2022-08-25T23:27:13.699Z,9.43
2022-08-25T23:29:45.271Z,9.55
2022-08-25T23:32:14.896Z,9.98
2022-08-25T23:34:46.595Z,9.80
2022-08-25T23:37:18.495Z,10.85
2022-08-25T23:39:50.047Z,11.90
2022-08-25T23:42:21.482Z,10.30
2022-08-25T23:44:50.173Z,10.27
2022-08-25T23:47:19.221Z,10.68
2022-08-25T23:49:49.220Z,11.00
2022-08-25T23:52:18.404Z,9.77
2022-08-25T23:54:47.720Z,9.57
2022-08-25T23:57:16.142Z,10.80
2022-08-25T23:59:48.881Z,9.13
